createdAt,value
2023-11-26T00:00:40.541Z,54.16
2023-11-26T00:03:28.984Z,55.39
2023-11-26T00:05:57.608Z,56.21
2023-11-26T00:08:26.200Z,56.31
2023-11-26T00:10:56.407Z,56.23
2023-11-26T00:13:25.693Z,55.93
2023-11-26T00:15:54.230Z,56.25
2023-11-26T00:18:22.881Z,56.58
2023-11-26T00:20:51.282Z,57.00
2023-11-26T00:23:19.816Z,57.46
2023-11-26T00:25:48.101Z,57.11
2023-11-26T00:28:16.705Z,57.25
2023-11-26T00:30:45.271Z,57.48
2023-11-26T00:33:13.882Z,57.51
2023-11-26T00:35:43.035Z,57.86
2023-11-26T00:38:11.732Z,58.02
2023-11-26T00:40:40.916Z,57.57
2023-11-26T00:43:12.041Z,57.30
2023-11-26T00:45:42.102Z,57.55
2023-11-26T00:48:11.396Z,57.49
2023-11-26T00:50:39.821Z,57.63
2023-11-26T00:53:08.388Z,57.83
2023-11-26T00:55:37.196Z,57.98
2023-11-26T00:58:05.991Z,57.78
2023-11-26T01:00:34.543Z,57.76
2023-11-26T01:03:03.153Z,57.61
2023-11-26T01:05:31.896Z,57.12
2023-11-26T01:08:02.503Z,57.20
2023-11-26T01:10:30.959Z,57.06
2023-11-26T01:12:59.379Z,57.01
2023-11-26T01:15:28.116Z,56.49
2023-11-26T01:17:57.162Z,56.83
2023-11-26T01:20:26.259Z,56.81
2023-11-26T01:22:54.877Z,56.65
2023-11-26T01:25:24.054Z,56.75
2023-11-26T01:27:52.621Z,57.03
2023-11-26T01:30:22.646Z,56.95
2023-11-26T01:32:51.366Z,57.26
2023-11-26T01:35:19.900Z,57.32
2023-11-26T01:37:48.446Z,57.89
2023-11-26T01:40:16.931Z,58.27
2023-11-26T01:42:45.951Z,58.08
2023-11-26T01:45:14.661Z,57.42
2023-11-26T01:47:43.644Z,57.62
2023-11-26T01:50:21.395Z,57.40
2023-11-26T01:52:54.847Z,57.05
2023-11-26T01:55:23.579Z,57.87
2023-11-26T01:57:54.049Z,58.42
2023-11-26T02:00:23.278Z,58.57
2023-11-26T02:02:52.290Z,58.70
2023-11-26T02:05:21.106Z,58.49
2023-11-26T02:07:49.648Z,58.44
2023-11-26T02:10:18.083Z,58.15
2023-11-26T02:13:06.461Z,58.41
2023-11-26T02:15:36.044Z,58.46
2023-11-26T02:18:04.963Z,58.46
2023-11-26T02:20:34.279Z,58.28
2023-11-26T02:23:02.867Z,57.97
2023-11-26T02:25:33.014Z,57.86
2023-11-26T02:28:01.671Z,57.97
2023-11-26T02:30:30.610Z,58.01
2023-11-26T02:33:00.179Z,58.10
2023-11-26T02:35:28.935Z,57.44
2023-11-26T02:37:58.167Z,57.26
2023-11-26T02:40:26.838Z,57.24
2023-11-26T02:42:58.029Z,57.91
2023-11-26T02:45:26.983Z,58.65
2023-11-26T02:47:55.527Z,58.29
2023-11-26T02:50:26.181Z,58.15
2023-11-26T02:52:54.691Z,57.82
2023-11-26T02:55:23.376Z,57.72
2023-11-26T02:57:52.122Z,57.53
2023-11-26T03:00:21.901Z,58.03
2023-11-26T03:02:50.700Z,58.33
2023-11-26T03:05:20.024Z,58.10
2023-11-26T03:07:53.573Z,58.09
2023-11-26T03:10:40.715Z,58.05
2023-11-26T03:13:13.886Z,58.53
2023-11-26T03:15:43.675Z,58.99
2023-11-26T03:18:14.714Z,59.49
2023-11-26T03:20:44.154Z,59.53
2023-11-26T03:23:14.712Z,59.38
2023-11-26T03:25:43.619Z,59.52
2023-11-26T03:28:12.214Z,59.52
2023-11-26T03:30:40.711Z,59.88
2023-11-26T03:33:09.568Z,60.26
2023-11-26T03:35:38.374Z,59.92
2023-11-26T03:38:06.917Z,59.66
2023-11-26T03:40:36.334Z,59.78
2023-11-26T03:43:05.870Z,59.82
2023-11-26T03:45:35.015Z,60.25
2023-11-26T03:48:03.678Z,60.66
2023-11-26T03:50:32.450Z,60.28
2023-11-26T03:53:01.235Z,60.19
2023-11-26T03:55:30.487Z,60.18
2023-11-26T03:57:59.105Z,60.15
2023-11-26T04:00:28.154Z,60.50
2023-11-26T04:02:56.883Z,60.64
2023-11-26T04:05:26.916Z,59.92
2023-11-26T04:07:55.362Z,59.28
2023-11-26T04:10:31.175Z,59.50
2023-11-26T04:13:05.159Z,59.56
2023-11-26T04:15:33.659Z,59.85
2023-11-26T04:18:02.200Z,60.10
2023-11-26T04:20:30.829Z,59.96
2023-11-26T04:22:59.670Z,59.72
2023-11-26T04:25:28.415Z,59.90
2023-11-26T04:27:57.141Z,59.80
2023-11-26T04:30:25.595Z,59.72
2023-11-26T04:32:53.909Z,58.96
2023-11-26T04:35:22.416Z,57.58
2023-11-26T04:37:50.788Z,56.64
2023-11-26T04:40:21.804Z,56.30
2023-11-26T04:42:50.175Z,56.48
2023-11-26T04:45:18.508Z,56.30
2023-11-26T04:47:48.159Z,56.10
2023-11-26T04:50:16.774Z,55.89
2023-11-26T04:52:45.071Z,56.13
2023-11-26T04:55:13.952Z,56.92
2023-11-26T04:57:42.278Z,56.56
2023-11-26T05:00:13.190Z,56.41
2023-11-26T05:02:42.204Z,56.36
2023-11-26T05:05:11.825Z,56.05
2023-11-26T05:07:41.025Z,55.83
2023-11-26T05:10:11.006Z,55.93
2023-11-26T05:12:39.606Z,55.86
2023-11-26T05:15:08.593Z,55.97
2023-11-26T05:17:37.204Z,56.41
2023-11-26T05:20:07.049Z,55.89
2023-11-26T05:22:35.681Z,55.60
2023-11-26T05:25:04.412Z,55.60
2023-11-26T05:27:33.029Z,56.51
2023-11-26T05:30:02.643Z,57.47
2023-11-26T05:32:31.241Z,58.59
2023-11-26T05:34:59.997Z,58.47
2023-11-26T05:37:28.484Z,57.54
2023-11-26T05:39:56.919Z,57.26
2023-11-26T05:42:25.852Z,56.89
2023-11-26T05:44:54.487Z,56.52
2023-11-26T05:47:23.849Z,56.07
2023-11-26T05:49:54.854Z,56.42
2023-11-26T05:52:23.935Z,56.31
2023-11-26T05:54:55.476Z,56.68
2023-11-26T05:57:25.051Z,56.57
2023-11-26T05:59:53.714Z,56.04
2023-11-26T06:02:22.162Z,55.81
2023-11-26T06:04:50.554Z,55.65
2023-11-26T06:07:19.460Z,55.40
2023-11-26T06:09:48.065Z,55.48
2023-11-26T06:12:16.763Z,55.97
2023-11-26T06:14:45.158Z,56.45
2023-11-26T06:17:13.998Z,56.94
2023-11-26T06:19:42.691Z,56.42
2023-11-26T06:22:11.472Z,56.40
2023-11-26T06:24:40.691Z,56.53
2023-11-26T06:27:09.843Z,56.38
2023-11-26T06:29:42.794Z,56.35
2023-11-26T06:32:12.186Z,56.37
2023-11-26T06:34:40.901Z,56.85
2023-11-26T06:37:09.560Z,56.69
2023-11-26T06:39:38.042Z,56.52
2023-11-26T06:42:06.910Z,55.87
2023-11-26T06:44:36.083Z,55.39
2023-11-26T06:47:04.930Z,55.24
2023-11-26T06:49:33.521Z,55.11
2023-11-26T06:52:02.791Z,55.37
2023-11-26T06:54:31.772Z,55.56
2023-11-26T06:57:01.244Z,56.07
2023-11-26T06:59:30.049Z,54.77
2023-11-26T07:01:59.124Z,51.20
2023-11-26T07:04:28.674Z,48.36
2023-11-26T07:06:57.893Z,46.35
2023-11-26T07:09:26.642Z,43.47
2023-11-26T07:11:55.454Z,41.55
2023-11-26T07:14:24.271Z,38.82
2023-11-26T07:16:56.295Z,36.82
2023-11-26T07:19:25.602Z,34.96
2023-11-26T07:21:54.358Z,33.39
2023-11-26T07:24:22.868Z,31.96
2023-11-26T07:26:51.543Z,30.41
2023-11-26T07:29:19.959Z,29.31
2023-11-26T07:31:49.103Z,28.82
2023-11-26T07:34:18.092Z,27.68
2023-11-26T07:36:51.876Z,26.82
2023-11-26T07:39:20.469Z,25.82
2023-11-26T07:41:49.192Z,24.97
2023-11-26T07:44:17.934Z,24.25
2023-11-26T07:46:46.510Z,23.46
2023-11-26T07:49:16.130Z,22.47
2023-11-26T07:51:45.106Z,21.99
2023-11-26T07:54:19.795Z,21.60
2023-11-26T07:56:54.819Z,21.08
2023-11-26T07:59:23.470Z,20.79
2023-11-26T08:01:51.972Z,20.49
2023-11-26T08:04:21.118Z,20.05
2023-11-26T08:06:50.947Z,19.77
2023-11-26T08:09:20.111Z,19.34
2023-11-26T08:11:48.815Z,18.92
2023-11-26T08:14:17.509Z,18.42
2023-11-26T08:16:48.073Z,17.97
2023-11-26T08:19:19.847Z,17.39
2023-11-26T08:21:49.363Z,17.39
2023-11-26T08:24:21.433Z,16.82
2023-11-26T08:26:50.128Z,16.37
2023-11-26T08:29:20.685Z,15.89
2023-11-26T08:31:52.561Z,15.71
2023-11-26T08:34:23.943Z,15.47
2023-11-26T08:36:52.687Z,15.40
2023-11-26T08:39:28.240Z,15.34
2023-11-26T08:41:58.195Z,15.47
2023-11-26T08:44:26.978Z,15.40
2023-11-26T08:46:56.722Z,14.95
2023-11-26T08:49:26.259Z,14.80
2023-11-26T08:51:55.757Z,14.22
2023-11-26T08:54:24.468Z,14.38
2023-11-26T08:56:53.823Z,14.03
2023-11-26T08:59:22.516Z,13.45
2023-11-26T09:01:51.305Z,13.66
2023-11-26T09:04:19.847Z,13.02
2023-11-26T09:06:48.289Z,12.94
2023-11-26T09:09:17.909Z,12.40
2023-11-26T09:11:46.200Z,12.48
2023-11-26T09:14:14.898Z,12.44
2023-11-26T09:16:43.598Z,12.26
2023-11-26T09:19:12.048Z,11.98
2023-11-26T09:21:41.091Z,12.04
2023-11-26T09:24:09.618Z,11.47
2023-11-26T09:26:38.093Z,11.49
2023-11-26T09:29:08.770Z,11.42
2023-11-26T09:31:47.760Z,11.20
2023-11-26T09:34:16.437Z,11.08
2023-11-26T09:36:46.452Z,10.87
2023-11-26T09:39:17.235Z,10.86
2023-11-26T09:41:45.605Z,10.91
2023-11-26T09:44:14.859Z,10.90
2023-11-26T09:46:45.653Z,11.06
2023-11-26T09:49:14.522Z,10.87
2023-11-26T09:51:45.144Z,10.80
2023-11-26T09:54:16.505Z,10.95
2023-11-26T09:56:46.973Z,10.67
2023-11-26T09:59:26.465Z,10.83
2023-11-26T10:01:55.501Z,10.56
2023-11-26T10:04:24.188Z,9.99
2023-11-26T10:06:56.861Z,10.24
2023-11-26T10:09:25.389Z,10.05
2023-11-26T10:11:59.553Z,9.64
2023-11-26T10:14:28.262Z,9.51
2023-11-26T10:16:56.920Z,9.38
2023-11-26T10:19:30.251Z,9.29
2023-11-26T10:22:01.365Z,9.08
2023-11-26T10:24:31.451Z,9.06
2023-11-26T10:27:01.115Z,8.80
2023-11-26T10:29:32.554Z,8.88
2023-11-26T10:32:06.017Z,8.87
2023-11-26T10:34:38.985Z,8.87
2023-11-26T10:37:24.641Z,8.63
2023-11-26T10:39:54.736Z,8.43
2023-11-26T10:42:24.797Z,8.11
2023-11-26T10:44:55.516Z,8.02
2023-11-26T10:47:27.694Z,8.04
2023-11-26T10:50:01.914Z,8.05
2023-11-26T10:52:57.474Z,7.74
2023-11-26T10:55:32.325Z,7.65
2023-11-26T10:58:13.392Z,7.64
2023-11-26T11:00:45.469Z,7.53
2023-11-26T11:03:14.029Z,7.71
2023-11-26T11:05:43.686Z,7.83
2023-11-26T11:08:12.762Z,7.87
2023-11-26T11:10:59.565Z,7.83
2023-11-26T11:13:29.875Z,7.85
2023-11-26T11:15:59.541Z,7.87
2023-11-26T11:18:28.702Z,7.75
2023-11-26T11:21:07.606Z,7.78
2023-11-26T11:23:47.081Z,7.78
2023-11-26T11:26:17.139Z,7.66
2023-11-26T11:28:51.349Z,8.06
2023-11-26T11:31:21.480Z,8.05
2023-11-26T11:33:59.506Z,7.71
2023-11-26T11:36:48.780Z,7.60
2023-11-26T11:39:29.486Z,7.79
2023-11-26T11:42:00.780Z,7.79
2023-11-26T11:44:32.276Z,7.66
2023-11-26T11:47:02.667Z,7.63
2023-11-26T11:49:46.886Z,7.73
2023-11-26T11:52:16.798Z,7.89
2023-11-26T11:55:01.148Z,7.80
2023-11-26T11:57:38.802Z,7.75
2023-11-26T12:00:28.449Z,7.82
2023-11-26T12:02:57.318Z,7.71
2023-11-26T12:05:28.554Z,7.40
2023-11-26T12:08:00.552Z,7.16
2023-11-26T12:10:34.943Z,7.39
2023-11-26T12:13:09.005Z,7.52
2023-11-26T12:15:42.200Z,7.54
2023-11-26T12:18:11.500Z,7.22
2023-11-26T12:20:40.738Z,7.45
2023-11-26T12:23:09.791Z,7.59
2023-11-26T12:25:38.613Z,7.51
2023-11-26T12:28:09.505Z,7.47
2023-11-26T12:30:39.535Z,7.59
2023-11-26T12:33:13.785Z,7.49
2023-11-26T12:35:43.463Z,7.15
2023-11-26T12:38:12.963Z,7.01
2023-11-26T12:40:41.968Z,7.17
2023-11-26T12:43:11.107Z,7.02
2023-11-26T12:45:39.972Z,6.85
2023-11-26T12:48:08.633Z,6.95
2023-11-26T12:50:44.609Z,7.30
2023-11-26T12:53:14.905Z,7.25
2023-11-26T12:55:47.243Z,7.40
2023-11-26T12:58:25.410Z,7.47
2023-11-26T13:00:54.255Z,7.67
2023-11-26T13:03:23.535Z,7.97
2023-11-26T13:05:52.963Z,8.09
2023-11-26T13:08:23.976Z,7.91
2023-11-26T13:10:56.976Z,7.85
2023-11-26T13:13:34.047Z,8.08
2023-11-26T13:16:06.439Z,7.89
2023-11-26T13:18:35.366Z,7.94
2023-11-26T13:21:13.457Z,7.91
2023-11-26T13:23:42.365Z,7.94
2023-11-26T13:26:11.514Z,8.13
2023-11-26T13:28:43.417Z,8.04
2023-11-26T13:31:11.878Z,8.21
2023-11-26T13:33:40.489Z,8.14
2023-11-26T13:36:09.614Z,8.22
2023-11-26T13:38:38.336Z,8.30
2023-11-26T13:41:07.381Z,8.14
2023-11-26T13:43:36.213Z,8.00
2023-11-26T13:46:06.040Z,7.81
2023-11-26T13:48:36.647Z,8.04
2023-11-26T13:51:05.695Z,8.06
2023-11-26T13:53:35.431Z,8.32
2023-11-26T13:56:05.797Z,8.33
2023-11-26T13:58:34.613Z,8.24
2023-11-26T14:01:04.521Z,8.39
2023-11-26T14:03:34.968Z,8.31
2023-11-26T14:06:04.562Z,8.60
2023-11-26T14:08:33.856Z,8.74
2023-11-26T14:11:02.607Z,8.74
2023-11-26T14:13:32.159Z,9.05
2023-11-26T14:16:01.037Z,8.96
2023-11-26T14:18:30.757Z,9.04
2023-11-26T14:21:00.246Z,9.22
2023-11-26T14:23:29.349Z,9.40
2023-11-26T14:25:58.252Z,9.72
2023-11-26T14:28:28.011Z,9.78
2023-11-26T14:30:57.801Z,10.05
2023-11-26T14:33:26.730Z,10.34
2023-11-26T14:35:55.936Z,10.30
2023-11-26T14:38:25.202Z,10.35
2023-11-26T14:40:54.417Z,10.83
2023-11-26T14:43:23.784Z,10.78
2023-11-26T14:45:52.964Z,10.92
2023-11-26T14:48:22.709Z,11.24
2023-11-26T14:50:52.746Z,11.37
2023-11-26T14:53:21.936Z,12.12
2023-11-26T14:55:50.781Z,12.54
2023-11-26T14:58:21.134Z,13.06
2023-11-26T15:00:51.100Z,13.40
2023-11-26T15:03:19.790Z,13.63
2023-11-26T15:05:48.509Z,13.88
2023-11-26T15:08:17.560Z,14.36
2023-11-26T15:10:48.006Z,14.98
2023-11-26T15:13:17.386Z,15.81
2023-11-26T15:15:46.376Z,17.76
2023-11-26T15:18:15.477Z,19.28
2023-11-26T15:20:44.270Z,20.46
2023-11-26T15:23:13.343Z,21.25
2023-11-26T15:25:42.341Z,22.37
2023-11-26T15:28:12.544Z,23.44
2023-11-26T15:30:41.313Z,24.53
2023-11-26T15:33:10.861Z,25.28
2023-11-26T15:35:39.620Z,26.03
2023-11-26T15:38:11.359Z,27.09
2023-11-26T15:40:42.975Z,27.46
2023-11-26T15:43:12.116Z,28.07
2023-11-26T15:45:41.172Z,28.46
2023-11-26T15:48:10.444Z,29.32
2023-11-26T15:50:39.938Z,30.15
2023-11-26T15:53:08.760Z,30.43
2023-11-26T15:55:38.223Z,31.43
2023-11-26T15:58:07.458Z,32.03
2023-11-26T16:00:36.855Z,32.50
2023-11-26T16:03:06.558Z,33.08
2023-11-26T16:05:37.284Z,33.37
2023-11-26T16:08:06.998Z,34.01
2023-11-26T16:10:35.503Z,34.51
2023-11-26T16:13:05.110Z,34.85
2023-11-26T16:15:33.786Z,34.92
2023-11-26T16:18:03.085Z,35.46
2023-11-26T16:20:36.064Z,35.64
2023-11-26T16:23:05.380Z,35.73
2023-11-26T16:25:34.532Z,35.92
2023-11-26T16:28:03.091Z,36.06
2023-11-26T16:30:31.974Z,36.43
2023-11-26T16:33:00.920Z,36.88
2023-11-26T16:35:31.286Z,37.11
2023-11-26T16:38:00.060Z,37.29
2023-11-26T16:40:29.132Z,37.75
2023-11-26T16:42:58.265Z,38.17
2023-11-26T16:45:27.270Z,38.56
2023-11-26T16:47:57.357Z,38.95
2023-11-26T16:50:26.195Z,39.66
2023-11-26T16:52:55.098Z,39.72
2023-11-26T16:55:24.434Z,39.60
2023-11-26T16:57:54.481Z,40.03
2023-11-26T17:00:24.647Z,40.52
2023-11-26T17:02:54.343Z,40.41
2023-11-26T17:05:23.857Z,40.53
2023-11-26T17:07:52.656Z,40.84
2023-11-26T17:10:21.421Z,40.91
2023-11-26T17:12:51.402Z,40.98
2023-11-26T17:15:22.929Z,41.32
2023-11-26T17:17:52.006Z,41.77
2023-11-26T17:20:21.708Z,41.78
2023-11-26T17:22:50.604Z,41.91
2023-11-26T17:25:19.819Z,42.08
2023-11-26T17:27:50.005Z,42.44
2023-11-26T17:30:18.891Z,42.59
2023-11-26T17:32:47.476Z,42.83
2023-11-26T17:35:16.466Z,43.18
2023-11-26T17:37:45.411Z,43.32
2023-11-26T17:40:15.114Z,43.92
2023-11-26T17:42:44.050Z,44.35
2023-11-26T17:45:13.846Z,44.44
2023-11-26T17:47:43.757Z,44.41
2023-11-26T17:50:13.874Z,44.24
2023-11-26T17:52:50.440Z,43.97
2023-11-26T17:55:23.707Z,43.97
2023-11-26T17:57:52.900Z,43.79
2023-11-26T18:00:21.920Z,43.83
2023-11-26T18:02:52.136Z,43.93
2023-11-26T18:05:22.084Z,44.20
2023-11-26T18:07:51.442Z,44.43
2023-11-26T18:10:20.438Z,44.23
2023-11-26T18:12:49.405Z,44.10
2023-11-26T18:15:20.104Z,44.18
2023-11-26T18:17:51.006Z,44.29
2023-11-26T18:20:20.355Z,44.79
2023-11-26T18:22:49.500Z,45.07
2023-11-26T18:25:19.551Z,45.74
2023-11-26T18:27:48.490Z,45.53
2023-11-26T18:30:17.704Z,45.49
2023-11-26T18:32:46.804Z,45.43
2023-11-26T18:35:16.258Z,45.47
2023-11-26T18:37:45.897Z,45.56
2023-11-26T18:40:14.746Z,45.87
2023-11-26T18:42:47.792Z,45.51
2023-11-26T18:45:19.831Z,45.56
2023-11-26T18:47:48.724Z,45.40
2023-11-26T18:50:19.189Z,45.72
2023-11-26T18:52:48.975Z,45.36
2023-11-26T18:55:19.741Z,45.56
2023-11-26T18:57:48.954Z,45.70
2023-11-26T19:00:18.053Z,45.66
2023-11-26T19:02:47.268Z,45.83
2023-11-26T19:05:16.217Z,45.66
2023-11-26T19:07:45.416Z,45.73
2023-11-26T19:10:14.748Z,46.14
2023-11-26T19:12:44.006Z,46.50
2023-11-26T19:15:13.306Z,46.59
2023-11-26T19:17:43.149Z,46.98
2023-11-26T19:20:12.861Z,47.09
2023-11-26T19:22:42.536Z,47.23
2023-11-26T19:25:11.896Z,47.26
2023-11-26T19:27:41.319Z,47.83
2023-11-26T19:30:10.663Z,48.01
2023-11-26T19:32:39.650Z,48.57
2023-11-26T19:35:08.938Z,49.00
2023-11-26T19:37:38.892Z,49.58
2023-11-26T19:40:10.304Z,49.71
2023-11-26T19:42:39.147Z,50.11
2023-11-26T19:45:08.989Z,50.25
2023-11-26T19:47:38.981Z,50.44
2023-11-26T19:50:08.255Z,50.24
2023-11-26T19:52:37.640Z,50.75
2023-11-26T19:55:07.307Z,51.23
2023-11-26T19:57:38.032Z,51.94
2023-11-26T20:00:09.089Z,52.41
2023-11-26T20:02:38.546Z,52.59
2023-11-26T20:05:08.348Z,52.46
2023-11-26T20:07:37.563Z,52.60
2023-11-26T20:10:10.415Z,52.40
2023-11-26T20:12:39.706Z,52.22
2023-11-26T20:15:10.349Z,52.55
2023-11-26T20:17:41.365Z,52.93
2023-11-26T20:20:11.700Z,52.84
2023-11-26T20:22:41.234Z,52.90
2023-11-26T20:25:12.958Z,53.45
2023-11-26T20:27:43.659Z,53.59
2023-11-26T20:30:14.159Z,53.01
2023-11-26T20:32:43.438Z,52.77
2023-11-26T20:35:12.701Z,52.74
2023-11-26T20:37:44.407Z,52.66
2023-11-26T20:40:14.993Z,52.25
2023-11-26T20:42:46.381Z,52.23
2023-11-26T20:45:16.840Z,52.38
2023-11-26T20:47:47.563Z,52.19
2023-11-26T20:50:17.229Z,52.43
2023-11-26T20:52:47.264Z,52.15
2023-11-26T20:55:17.489Z,52.34
2023-11-26T20:57:47.055Z,52.53
2023-11-26T21:00:17.428Z,52.73
2023-11-26T21:02:49.144Z,53.32
2023-11-26T21:05:19.893Z,53.77
2023-11-26T21:07:48.887Z,53.64
2023-11-26T21:10:18.022Z,53.67
2023-11-26T21:12:47.297Z,53.82
2023-11-26T21:15:15.968Z,53.98
2023-11-26T21:17:44.623Z,54.15
2023-11-26T21:20:13.307Z,54.09
2023-11-26T21:22:43.046Z,54.18
2023-11-26T21:25:12.012Z,54.39
2023-11-26T21:27:41.574Z,54.61
2023-11-26T21:30:11.199Z,54.37
2023-11-26T21:32:40.341Z,54.31
2023-11-26T21:35:09.666Z,54.43
2023-11-26T21:37:38.370Z,54.44
2023-11-26T21:40:09.362Z,54.68
2023-11-26T21:42:38.296Z,55.08
2023-11-26T21:45:07.672Z,55.34
2023-11-26T21:47:36.776Z,55.43
2023-11-26T21:50:06.758Z,55.08
2023-11-26T21:52:35.293Z,54.51
2023-11-26T21:55:04.866Z,54.24
2023-11-26T21:57:33.862Z,54.36
2023-11-26T22:00:04.121Z,54.04
2023-11-26T22:02:33.520Z,54.32
2023-11-26T22:05:02.237Z,54.65
2023-11-26T22:07:30.833Z,55.18
2023-11-26T22:10:00.009Z,55.34
2023-11-26T22:12:28.855Z,55.31
2023-11-26T22:14:57.465Z,55.45
2023-11-26T22:17:26.447Z,55.61
2023-11-26T22:19:54.945Z,55.94
2023-11-26T22:22:24.429Z,55.73
2023-11-26T22:24:57.302Z,56.22
2023-11-26T22:27:26.280Z,56.16
2023-11-26T22:29:55.013Z,55.63
2023-11-26T22:32:23.608Z,55.03
2023-11-26T22:34:52.634Z,54.90
2023-11-26T22:37:21.355Z,54.68
2023-11-26T22:39:50.693Z,54.34
2023-11-26T22:42:19.849Z,54.32
2023-11-26T22:44:48.603Z,53.93
2023-11-26T22:47:17.366Z,54.02
2023-11-26T22:49:46.920Z,54.09
2023-11-26T22:52:15.266Z,54.77
2023-11-26T22:54:43.966Z,54.81
2023-11-26T22:57:12.898Z,54.73
2023-11-26T22:59:41.641Z,54.71
2023-11-26T23:02:10.363Z,55.09
2023-11-26T23:04:39.301Z,55.37
2023-11-26T23:07:07.820Z,55.84
2023-11-26T23:09:36.514Z,56.43
2023-11-26T23:12:05.903Z,56.43
2023-11-26T23:14:35.143Z,56.07
2023-11-26T23:17:03.974Z,55.89
2023-11-26T23:19:32.653Z,55.78
2023-11-26T23:22:01.800Z,55.99
2023-11-26T23:24:30.400Z,55.98
2023-11-26T23:27:00.361Z,56.24
2023-11-26T23:29:28.876Z,56.50
2023-11-26T23:31:57.377Z,56.55
2023-11-26T23:34:26.195Z,56.61
2023-11-26T23:36:54.771Z,56.76
2023-11-26T23:39:23.304Z,57.05
2023-11-26T23:41:51.919Z,56.90
2023-11-26T23:44:20.409Z,57.53
2023-11-26T23:46:48.787Z,56.93
2023-11-26T23:49:17.252Z,57.09
2023-11-26T23:51:45.737Z,57.03
2023-11-26T23:54:14.689Z,56.99
2023-11-26T23:56:43.282Z,56.97
2023-11-26T23:59:12.494Z,57.34
